Time;durP1;ratioP1;P1;durP2;ratioP2;P2;SDS_P1;SDS_P2;PMS_P1;PMS_P2;Temp;Humidity;BMP_temperature;BMP_pressure;BME280_temperature;BME280_humidity;BME280_pressure;Samples;Min_cycle;Max_cycle;Signal;HPM_P1;HPM_P2
2021/03/11 00:01:30;;;;;;;12.80;8.70;;;9.00;96.70;;;;;;4992462;28;20463;-74
2021/03/11 00:03:58;;;;;;;11.10;9.27;;;9.00;96.70;;;;;;5001374;28;20030;-74
2021/03/11 00:06:26;;;;;;;13.65;9.45;;;8.90;96.70;;;;;;4996542;28;20049;-74
2021/03/11 00:08:53;;;;;;;11.55;9.02;;;8.90;96.70;;;;;;4995481;28;20042;-74
2021/03/11 00:11:20;;;;;;;12.02;9.88;;;8.90;96.70;;;;;;4994784;28;20042;-74
2021/03/11 00:13:47;;;;;;;12.00;9.80;;;9.00;96.70;;;;;;4979357;28;20043;-74
2021/03/11 00:16:15;;;;;;;13.57;10.68;;;9.20;96.70;;;;;;4981373;28;20080;-74
2021/03/11 00:18:42;;;;;;;15.15;11.00;;;9.10;96.70;;;;;;4982458;28;20033;-74
2021/03/11 00:21:09;;;;;;;14.13;10.45;;;9.00;96.70;;;;;;4992369;28;20137;-74
2021/03/11 00:23:38;;;;;;;12.68;10.18;;;9.00;96.70;;;;;;4980878;28;20050;-74
2021/03/11 00:26:05;;;;;;;16.00;11.98;;;8.90;96.70;;;;;;4999365;28;20578;-74
2021/03/11 00:28:32;;;;;;;16.90;11.25;;;8.90;96.70;;;;;;4995587;28;20196;-74
2021/03/11 00:31:00;;;;;;;13.82;11.23;;;8.90;96.70;;;;;;4994320;28;20048;-74
2021/03/11 00:33:27;;;;;;;15.93;11.00;;;8.80;96.70;;;;;;4996609;28;20124;-74
2021/03/11 00:35:54;;;;;;;15.52;10.82;;;8.80;96.70;;;;;;4993335;28;20627;-75
2021/03/11 00:38:22;;;;;;;12.52;10.40;;;8.80;96.70;;;;;;4994943;28;20121;-74
2021/03/11 00:40:50;;;;;;;14.27;11.27;;;8.60;96.70;;;;;;4998878;28;20042;-73
2021/03/11 00:43:17;;;;;;;12.80;10.25;;;8.50;96.70;;;;;;4997142;28;20495;-74
2021/03/11 00:45:47;;;;;;;15.30;11.27;;;8.50;96.70;;;;;;4996905;28;20503;-74
2021/03/11 00:48:16;;;;;;;13.43;11.02;;;8.50;96.70;;;;;;4990611;28;20145;-74
2021/03/11 00:50:44;;;;;;;13.68;9.88;;;8.50;96.70;;;;;;4997136;28;20490;-74
2021/03/11 00:53:11;;;;;;;13.15;10.30;;;8.40;96.70;;;;;;4999303;28;20115;-74
2021/03/11 00:55:40;;;;;;;15.52;11.95;;;8.40;96.70;;;;;;4993013;28;20045;-74
2021/03/11 00:58:09;;;;;;;14.18;10.88;;;8.40;96.70;;;;;;4991417;28;20042;-74
2021/03/11 01:00:38;;;;;;;14.18;11.10;;;8.40;96.70;;;;;;5002464;28;21070;-74
2021/03/11 01:03:11;;;;;;;16.75;10.90;;;8.40;96.70;;;;;;4980611;28;20046;-74
2021/03/11 01:05:45;;;;;;;13.77;10.55;;;8.50;96.70;;;;;;4993448;28;20045;-74
2021/03/11 01:08:21;;;;;;;16.05;11.23;;;8.50;96.70;;;;;;4993560;28;20532;-74
2021/03/11 01:10:49;;;;;;;16.08;10.15;;;8.50;96.70;;;;;;4995360;28;20052;-74
2021/03/11 01:13:17;;;;;;;14.27;10.60;;;8.40;96.70;;;;;;4990719;28;20038;-74
2021/03/11 01:15:45;;;;;;;12.65;10.23;;;8.40;96.70;;;;;;4997079;28;20101;-74
2021/03/11 01:18:13;;;;;;;15.25;9.77;;;8.40;96.70;;;;;;4996471;28;20161;-74
2021/03/11 01:20:42;;;;;;;13.48;9.93;;;8.40;96.70;;;;;;4992234;28;20176;-74
2021/03/11 01:23:09;;;;;;;11.95;9.45;;;8.30;96.70;;;;;;4993976;28;20066;-74
2021/03/11 01:25:36;;;;;;;13.38;9.05;;;8.40;96.70;;;;;;4995976;28;20113;-74
2021/03/11 01:28:04;;;;;;;12.63;9.43;;;8.40;96.70;;;;;;5000665;28;20034;-73
2021/03/11 01:30:32;;;;;;;15.45;9.52;;;8.40;96.70;;;;;;4996294;28;20081;-73
2021/03/11 01:33:00;;;;;;;11.95;8.60;;;8.40;96.70;;;;;;4993011;28;20034;-74
2021/03/11 01:35:27;;;;;;;12.43;9.07;;;8.40;96.70;;;;;;4987806;28;20407;-73
2021/03/11 01:37:55;;;;;;;15.32;8.43;;;8.40;96.70;;;;;;4997627;28;20520;-73
2021/03/11 01:40:22;;;;;;;12.65;8.93;;;8.30;96.70;;;;;;4989098;28;20542;-74
2021/03/11 01:42:49;;;;;;;10.73;8.95;;;8.30;96.70;;;;;;4998097;28;20129;-74
2021/03/11 01:45:17;;;;;;;10.57;8.35;;;8.30;96.70;;;;;;4992597;28;20410;-74
2021/03/11 01:47:45;;;;;;;14.00;9.15;;;8.30;96.70;;;;;;4999999;28;20068;-74
2021/03/11 01:50:13;;;;;;;9.60;8.35;;;8.30;96.70;;;;;;4998830;28;20044;-74
2021/03/11 01:52:42;;;;;;;12.57;9.05;;;8.10;96.70;;;;;;5001533;28;20046;-74
2021/03/11 01:55:10;;;;;;;14.18;9.10;;;8.10;96.70;;;;;;4998899;28;20042;-74
2021/03/11 01:57:37;;;;;;;11.57;9.20;;;8.20;96.70;;;;;;4980988;28;20127;-74
2021/03/11 02:00:08;;;;;;;12.60;9.68;;;8.20;96.70;;;;;;5000745;28;20038;-73
2021/03/11 02:02:40;;;;;;;14.15;9.52;;;8.20;96.70;;;;;;5001781;28;20480;-74
2021/03/11 02:05:12;;;;;;;11.60;9.43;;;8.10;96.70;;;;;;4999184;28;20112;-74
2021/03/11 02:07:40;;;;;;;14.25;9.75;;;8.10;96.70;;;;;;4999564;28;20115;-74
2021/03/11 02:10:10;;;;;;;12.85;10.02;;;8.10;96.70;;;;;;4978200;28;20034;-74
2021/03/11 02:12:47;;;;;;;15.13;9.88;;;8.10;96.70;;;;;;5000073;28;20574;-74
2021/03/11 02:15:21;;;;;;;12.63;10.52;;;8.10;96.70;;;;;;4992061;28;20164;-74
2021/03/11 02:17:54;;;;;;;13.20;10.63;;;8.10;96.70;;;;;;4997575;28;20046;-73
2021/03/11 02:20:37;;;;;;;13.98;10.65;;;8.10;96.70;;;;;;4998403;28;20038;-74
2021/03/11 02:23:24;;;;;;;13.07;10.45;;;8.10;96.70;;;;;;4997438;28;20058;-74
2021/03/11 02:25:57;;;;;;;14.20;11.02;;;8.10;96.70;;;;;;4995917;28;20511;-74
2021/03/11 02:28:31;;;;;;;15.13;10.68;;;8.00;96.70;;;;;;5000291;28;20069;-74
2021/03/11 02:31:00;;;;;;;14.02;10.73;;;8.00;96.70;;;;;;4994750;28;20081;-74
2021/03/11 02:33:30;;;;;;;14.95;11.52;;;8.00;96.70;;;;;;5001355;28;20507;-74
2021/03/11 02:35:58;;;;;;;15.82;10.90;;;8.00;96.70;;;;;;4998855;28;20103;-74
2021/03/11 02:38:28;;;;;;;11.63;9.57;;;8.10;96.70;;;;;;4981600;28;20042;-74
2021/03/11 02:40:59;;;;;;;11.15;9.95;;;8.10;96.70;;;;;;4998879;28;20057;-74
2021/03/11 02:43:27;;;;;;;13.43;9.00;;;8.00;96.70;;;;;;5000558;28;20069;-74
2021/03/11 02:45:55;;;;;;;12.13;8.18;;;8.00;96.70;;;;;;4997346;28;20508;-74
2021/03/11 02:48:24;;;;;;;11.35;8.50;;;8.00;96.70;;;;;;4981132;28;20103;-73
2021/03/11 02:50:53;;;;;;;12.00;8.30;;;8.00;96.70;;;;;;5004719;28;20097;-74
2021/03/11 02:53:21;;;;;;;10.45;8.13;;;8.00;96.70;;;;;;4997341;28;20206;-74
2021/03/11 02:55:48;;;;;;;10.52;7.70;;;7.80;96.70;;;;;;4992294;28;20063;-74
2021/03/11 02:58:16;;;;;;;9.07;7.03;;;7.90;96.70;;;;;;4991355;28;20062;-73
2021/03/11 03:00:44;;;;;;;11.23;8.05;;;7.90;96.70;;;;;;4996875;28;20052;-74
2021/03/11 03:03:13;;;;;;;10.02;7.82;;;7.80;96.70;;;;;;5012130;28;20097;-74
2021/03/11 03:05:42;;;;;;;10.77;8.68;;;7.80;96.70;;;;;;4995623;28;20042;-74
2021/03/11 03:08:09;;;;;;;11.10;7.80;;;7.80;96.70;;;;;;4988937;28;20057;-73
2021/03/11 03:10:38;;;;;;;10.95;8.07;;;7.80;96.70;;;;;;5000335;28;20503;-74
2021/03/11 03:13:13;;;;;;;11.25;8.32;;;7.80;96.70;;;;;;4998289;28;20046;-74
2021/03/11 03:15:42;;;;;;;13.13;8.77;;;7.80;96.70;;;;;;4997796;28;20042;-74
2021/03/11 03:18:12;;;;;;;11.20;8.38;;;7.90;96.70;;;;;;4991518;28;20411;-74
2021/03/11 03:20:41;;;;;;;13.35;9.20;;;7.90;96.70;;;;;;4991129;28;20760;-74
2021/03/11 03:23:09;;;;;;;11.90;8.70;;;7.80;96.70;;;;;;4994398;28;20077;-74
2021/03/11 03:25:46;;;;;;;12.60;8.63;;;7.80;96.70;;;;;;4998880;28;20046;-74
2021/03/11 03:28:13;;;;;;;13.02;9.35;;;7.80;96.70;;;;;;4996836;28;20053;-74
2021/03/11 03:30:41;;;;;;;13.07;8.77;;;7.70;96.70;;;;;;4993997;28;20042;-74
2021/03/11 03:33:09;;;;;;;11.90;9.15;;;7.70;96.70;;;;;;4998646;28;20488;-74
2021/03/11 03:35:37;;;;;;;13.20;9.60;;;7.80;96.70;;;;;;4996307;28;20053;-74
2021/03/11 03:38:07;;;;;;;13.10;9.65;;;7.70;96.70;;;;;;4999721;28;20511;-74
2021/03/11 03:40:34;;;;;;;12.93;9.90;;;7.60;96.70;;;;;;4992560;28;20045;-74
2021/03/11 03:43:09;;;;;;;14.73;10.23;;;7.50;96.70;;;;;;4984343;28;20053;-74
2021/03/11 03:45:40;;;;;;;13.60;8.40;;;7.50;96.70;;;;;;5015111;28;20081;-74
2021/03/11 03:48:14;;;;;;;13.65;8.98;;;7.50;96.70;;;;;;4996630;28;20046;-74
2021/03/11 03:50:45;;;;;;;11.75;9.25;;;7.70;96.70;;;;;;4991470;28;20104;-74
2021/03/11 03:53:20;;;;;;;14.13;9.70;;;7.50;96.70;;;;;;4996757;28;20209;-74
2021/03/11 03:56:11;;;;;;;12.20;9.55;;;7.40;96.70;;;;;;5005221;28;20575;-74
2021/03/11 03:58:40;;;;;;;11.23;9.15;;;7.40;96.70;;;;;;4994295;28;20044;-74
2021/03/11 04:01:09;;;;;;;12.35;9.30;;;7.40;96.70;;;;;;4995528;28;20046;-74
2021/03/11 04:03:38;;;;;;;11.57;8.98;;;7.40;96.70;;;;;;4999891;28;20052;-74
2021/03/11 04:06:08;;;;;;;11.70;9.45;;;7.20;96.70;;;;;;5001362;28;20037;-74
2021/03/11 04:08:39;;;;;;;13.00;9.82;;;7.20;96.70;;;;;;4998081;28;20046;-74
2021/03/11 04:11:06;;;;;;;13.52;9.43;;;7.20;96.70;;;;;;4998170;28;20450;-74
2021/03/11 04:13:34;;;;;;;11.70;8.98;;;7.30;96.70;;;;;;4992312;28;20038;-73
2021/03/11 04:16:01;;;;;;;12.85;9.45;;;7.30;96.70;;;;;;4996123;28;20038;-73
2021/03/11 04:18:29;;;;;;;12.75;9.75;;;7.30;96.70;;;;;;4991990;28;20050;-74
2021/03/11 04:20:58;;;;;;;15.73;9.90;;;7.40;96.70;;;;;;5010885;28;20499;-73
2021/03/11 04:23:25;;;;;;;13.90;9.70;;;7.30;96.70;;;;;;4996124;28;20153;-74
2021/03/11 04:25:54;;;;;;;15.70;9.77;;;7.30;96.70;;;;;;4977487;28;20038;-74
2021/03/11 04:28:21;;;;;;;13.20;10.35;;;7.30;96.70;;;;;;4997036;28;20045;-74
2021/03/11 04:30:48;;;;;;;13.60;9.77;;;7.30;96.70;;;;;;4999161;28;20042;-74
2021/03/11 04:33:16;;;;;;;12.82;10.57;;;7.40;96.70;;;;;;4996989;28;20033;-74
2021/03/11 04:35:44;;;;;;;14.32;10.20;;;7.30;96.70;;;;;;4994334;28;20052;-74
2021/03/11 04:38:13;;;;;;;13.50;9.95;;;7.40;96.70;;;;;;4996592;28;20030;-74
2021/03/11 04:40:40;;;;;;;11.32;8.85;;;7.30;96.70;;;;;;4995956;28;20567;-74
2021/03/11 04:43:09;;;;;;;13.68;9.38;;;7.40;96.70;;;;;;4997262;28;20535;-74
2021/03/11 04:45:37;;;;;;;11.93;9.07;;;7.30;96.70;;;;;;4992196;28;20052;-74
2021/03/11 04:48:07;;;;;;;12.27;9.05;;;7.30;96.70;;;;;;4992729;28;20498;-74
2021/03/11 04:50:37;;;;;;;12.23;9.35;;;7.30;96.70;;;;;;4990959;28;20774;-73
2021/03/11 04:53:04;;;;;;;11.30;8.95;;;7.40;96.70;;;;;;4997267;28;20041;-72
2021/03/11 04:55:32;;;;;;;14.65;9.13;;;7.30;96.70;;;;;;4998148;28;20119;-72
2021/03/11 04:58:00;;;;;;;13.48;9.57;;;7.40;96.70;;;;;;4990227;28;20074;-72
2021/03/11 05:00:30;;;;;;;13.55;9.88;;;7.40;96.70;;;;;;4994086;28;20137;-72
2021/03/11 05:02:59;;;;;;;14.32;9.40;;;7.30;96.70;;;;;;4999558;28;20129;-72
2021/03/11 05:05:35;;;;;;;14.30;9.60;;;7.50;96.70;;;;;;4987371;28;20073;-72
2021/03/11 05:08:03;;;;;;;14.25;9.73;;;7.50;96.70;;;;;;4994821;28;20042;-72
2021/03/11 05:10:31;;;;;;;10.82;8.23;;;7.50;96.70;;;;;;4990914;28;20045;-72
2021/03/11 05:12:59;;;;;;;11.25;8.85;;;7.50;96.70;;;;;;4999903;28;20069;-72
2021/03/11 05:15:26;;;;;;;13.80;8.90;;;7.50;96.70;;;;;;4976144;28;20041;-72
2021/03/11 05:17:54;;;;;;;13.32;9.07;;;7.60;96.70;;;;;;4997873;28;20079;-72
2021/03/11 05:20:24;;;;;;;13.00;9.07;;;7.60;96.70;;;;;;4995485;28;20049;-72
2021/03/11 05:22:53;;;;;;;12.40;9.07;;;7.60;96.70;;;;;;4995299;28;20495;-72
2021/03/11 05:25:20;;;;;;;12.10;8.75;;;7.60;96.70;;;;;;4992036;28;20049;-72
2021/03/11 05:27:48;;;;;;;14.75;9.07;;;7.70;96.70;;;;;;4996318;28;20043;-72
2021/03/11 05:30:16;;;;;;;11.10;8.55;;;7.60;96.70;;;;;;4994171;28;20064;-72
2021/03/11 05:32:44;;;;;;;11.68;8.65;;;7.60;96.70;;;;;;4996065;28;20471;-72
2021/03/11 05:35:12;;;;;;;14.27;8.88;;;7.70;96.70;;;;;;4997504;28;20049;-72
2021/03/11 05:37:40;;;;;;;13.05;9.20;;;7.50;96.70;;;;;;4997138;28;20041;-72
2021/03/11 05:40:10;;;;;;;13.10;8.52;;;7.40;96.70;;;;;;5000070;28;20149;-72
2021/03/11 05:42:38;;;;;;;11.95;8.88;;;7.30;96.70;;;;;;4981598;28;20050;-72
2021/03/11 05:45:07;;;;;;;11.85;9.18;;;7.40;96.70;;;;;;4995149;28;20121;-72
2021/03/11 05:47:37;;;;;;;14.27;9.38;;;7.50;96.70;;;;;;4991437;28;20046;-72
2021/03/11 05:50:07;;;;;;;15.35;8.80;;;7.50;96.70;;;;;;4982791;28;20034;-72
2021/03/11 05:52:36;;;;;;;13.70;9.68;;;7.50;96.70;;;;;;4977668;28;20100;-72
2021/03/11 05:55:05;;;;;;;11.93;9.20;;;7.40;96.70;;;;;;5000255;28;20573;-72
2021/03/11 05:57:52;;;;;;;13.90;9.43;;;7.50;96.70;;;;;;4993578;28;20038;-72
2021/03/11 06:00:21;;;;;;;14.90;9.52;;;7.60;96.70;;;;;;4996334;28;20097;-72
2021/03/11 06:02:55;;;;;;;12.93;9.85;;;7.60;96.70;;;;;;4992069;28;20177;-72
2021/03/11 06:05:23;;;;;;;14.40;9.65;;;7.50;96.70;;;;;;5000384;28;20073;-72
2021/03/11 06:07:52;;;;;;;12.32;9.93;;;7.60;96.70;;;;;;4993255;28;20124;-72
2021/03/11 06:10:21;;;;;;;11.35;8.85;;;7.60;96.70;;;;;;4993424;28;20046;-72
2021/03/11 06:12:50;;;;;;;12.40;9.30;;;7.70;96.70;;;;;;4995863;28;20046;-72
2021/03/11 06:15:24;;;;;;;14.10;9.20;;;7.60;96.70;;;;;;4996436;28;20045;-72
2021/03/11 06:17:53;;;;;;;12.55;9.23;;;7.60;96.70;;;;;;4977413;28;20296;-72
2021/03/11 06:20:20;;;;;;;12.90;9.25;;;7.60;96.70;;;;;;4990178;28;20046;-72
2021/03/11 06:22:47;;;;;;;13.20;9.23;;;7.70;96.70;;;;;;4996152;28;20045;-74
2021/03/11 06:25:16;;;;;;;13.93;9.50;;;7.70;96.70;;;;;;4991345;28;20056;-74
2021/03/11 06:27:59;;;;;;;14.00;9.98;;;7.80;96.70;;;;;;4993578;28;20407;-74
2021/03/11 06:30:32;;;;;;;13.60;9.80;;;7.60;96.70;;;;;;4995262;28;20034;-73
2021/03/11 06:33:02;;;;;;;14.52;9.38;;;7.70;96.70;;;;;;4998112;28;20244;-74
2021/03/11 06:35:30;;;;;;;20.63;9.30;;;7.60;96.70;;;;;;5013794;28;20120;-74
2021/03/11 06:37:57;;;;;;;13.68;9.98;;;7.60;96.70;;;;;;4996008;28;20060;-74
2021/03/11 06:40:27;;;;;;;11.20;9.02;;;7.70;96.70;;;;;;5000428;28;20069;-74
2021/03/11 06:43:08;;;;;;;14.27;9.00;;;7.70;96.70;;;;;;4986501;28;20181;-74
2021/03/11 06:45:37;;;;;;;13.73;9.80;;;7.80;96.70;;;;;;4992196;28;20534;-74
2021/03/11 06:48:24;;;;;;;12.48;8.98;;;7.90;96.70;;;;;;4999069;28;20115;-74
2021/03/11 06:50:52;;;;;;;14.20;9.47;;;8.10;96.70;;;;;;4997885;28;20107;-73
2021/03/11 06:53:20;;;;;;;13.88;9.63;;;8.10;96.70;;;;;;4994068;28;20116;-74
2021/03/11 06:55:48;;;;;;;13.85;10.35;;;8.10;96.70;;;;;;4997694;28;20141;-74
2021/03/11 06:58:26;;;;;;;11.43;9.23;;;8.00;96.70;;;;;;4996765;28;20137;-74
2021/03/11 07:01:04;;;;;;;15.35;9.50;;;7.90;96.70;;;;;;4991563;28;20400;-74
2021/03/11 07:03:41;;;;;;;13.20;10.07;;;8.00;96.70;;;;;;5004318;28;20042;-74
2021/03/11 07:06:08;;;;;;;12.80;9.68;;;8.00;96.70;;;;;;4993326;28;20054;-74
2021/03/11 07:08:49;;;;;;;14.48;10.13;;;8.00;96.70;;;;;;4991344;28;20038;-74
2021/03/11 07:11:18;;;;;;;14.95;9.55;;;8.20;96.70;;;;;;5000614;28;20046;-74
2021/03/11 07:13:46;;;;;;;12.00;9.77;;;8.30;96.70;;;;;;4994320;28;20066;-74
2021/03/11 07:16:14;;;;;;;10.98;8.88;;;8.40;96.70;;;;;;4997802;28;20049;-74
2021/03/11 07:18:42;;;;;;;14.52;9.75;;;8.40;96.70;;;;;;4999300;28;20038;-74
2021/03/11 07:21:10;;;;;;;13.45;9.80;;;8.30;96.70;;;;;;4998314;28;20041;-74
2021/03/11 07:23:46;;;;;;;13.13;9.70;;;8.40;96.70;;;;;;4996516;28;20073;-74
2021/03/11 07:26:14;;;;;;;15.35;10.50;;;8.60;96.70;;;;;;4994710;28;20487;-74
2021/03/11 07:28:46;;;;;;;14.15;9.95;;;8.70;96.70;;;;;;4997552;28;20053;-74
2021/03/11 07:31:13;;;;;;;14.52;10.38;;;8.70;96.70;;;;;;4980001;28;20284;-74
2021/03/11 07:33:44;;;;;;;14.25;10.27;;;8.80;96.70;;;;;;4994388;28;20065;-74
2021/03/11 07:36:13;;;;;;;11.50;9.85;;;8.90;96.70;;;;;;4996077;28;20050;-74
2021/03/11 07:38:41;;;;;;;15.27;11.45;;;8.80;96.70;;;;;;4995170;28;20128;-74
2021/03/11 07:41:09;;;;;;;12.90;9.60;;;9.00;96.70;;;;;;5000494;28;20056;-73
2021/03/11 07:43:39;;;;;;;12.77;9.50;;;9.10;96.70;;;;;;4995183;28;20420;-74
2021/03/11 07:46:07;;;;;;;16.10;10.27;;;9.00;96.70;;;;;;4995124;28;20061;-74
2021/03/11 07:48:37;;;;;;;15.07;11.02;;;9.20;96.70;;;;;;4999175;28;20200;-74
2021/03/11 07:51:05;;;;;;;17.38;11.30;;;9.40;96.70;;;;;;4992935;28;20042;-74
2021/03/11 07:53:37;;;;;;;15.65;11.63;;;9.40;96.70;;;;;;4996302;28;20615;-75
2021/03/11 07:56:06;;;;;;;14.10;10.05;;;9.40;96.70;;;;;;4994117;28;20038;-74
2021/03/11 07:58:43;;;;;;;15.00;11.00;;;9.50;96.70;;;;;;4992267;28;20350;-74
2021/03/11 08:01:13;;;;;;;14.85;10.90;;;9.60;96.70;;;;;;4977518;28;20046;-74
2021/03/11 08:03:47;;;;;;;17.38;11.57;;;9.70;96.70;;;;;;4977013;28;20049;-77
2021/03/11 08:06:25;;;;;;;14.40;11.10;;;9.90;96.70;;;;;;4996309;28;20040;-74
2021/03/11 08:08:53;;;;;;;16.30;12.05;;;9.90;96.70;;;;;;4980830;28;20074;-73
2021/03/11 08:11:37;;;;;;;16.08;11.43;;;10.00;96.70;;;;;;5013832;28;20048;-77
2021/03/11 08:14:21;;;;;;;16.17;11.05;;;10.10;96.70;;;;;;4996501;28;20050;-75
2021/03/11 08:16:51;;;;;;;14.88;11.38;;;10.20;96.70;;;;;;4994369;28;20410;-77
2021/03/11 08:19:48;;;;;;;18.63;11.88;;;10.30;96.70;;;;;;4998181;28;20503;-75
2021/03/11 08:25:42;;;;;;;14.93;12.23;;;10.50;96.70;;;;;;5002755;28;20061;-75
2021/03/11 08:28:31;;;;;;;15.60;12.57;;;10.60;96.70;;;;;;4993729;28;20060;-75
2021/03/11 08:31:02;;;;;;;15.18;12.10;;;10.60;96.70;;;;;;4997010;28;20508;-75
2021/03/11 08:33:46;;;;;;;15.90;12.20;;;10.60;96.70;;;;;;4993308;28;20132;-73
2021/03/11 08:36:33;;;;;;;14.63;11.98;;;10.70;96.70;;;;;;4995146;28;20049;-73
2021/03/11 08:39:01;;;;;;;16.20;12.77;;;10.80;96.70;;;;;;4995336;28;20038;-75
2021/03/11 08:41:33;;;;;;;16.52;12.80;;;10.90;96.70;;;;;;4994086;28;20046;-76
2021/03/11 08:44:02;;;;;;;15.45;12.30;;;11.10;96.70;;;;;;4992515;28;20165;-75
2021/03/11 08:46:52;;;;;;;15.43;11.68;;;11.10;96.70;;;;;;4973515;28;20395;-76
2021/03/11 08:49:37;;;;;;;15.40;12.88;;;11.20;96.70;;;;;;4979274;28;20060;-76
2021/03/11 08:52:05;;;;;;;15.95;12.65;;;11.30;96.70;;;;;;4992652;28;20050;-76
2021/03/11 08:54:32;;;;;;;16.25;12.40;;;11.40;96.70;;;;;;4995608;28;20041;-75
2021/03/11 08:57:01;;;;;;;15.27;12.70;;;11.50;96.50;;;;;;4989874;28;20034;-76
2021/03/11 08:59:44;;;;;;;14.00;11.30;;;11.50;96.60;;;;;;4975130;28;20499;-74
2021/03/11 09:02:29;;;;;;;16.33;12.70;;;11.50;96.40;;;;;;4993773;28;20045;-71
2021/03/11 09:04:58;;;;;;;13.80;11.85;;;11.60;96.30;;;;;;4990911;28;20046;-75
2021/03/11 09:07:30;;;;;;;16.80;12.73;;;11.60;96.50;;;;;;4997375;28;20040;-74
2021/03/11 09:09:58;;;;;;;18.20;11.63;;;11.70;96.70;;;;;;4977242;28;20045;-74
2021/03/11 09:12:35;;;;;;;14.70;11.55;;;11.80;96.20;;;;;;4994748;28;20073;-73
2021/03/11 09:15:05;;;;;;;18.60;13.05;;;11.90;96.30;;;;;;4981546;28;20518;-74
2021/03/11 09:17:34;;;;;;;19.85;12.80;;;12.00;95.70;;;;;;5009677;28;20514;-75
2021/03/11 09:20:06;;;;;;;17.42;12.18;;;12.10;96.20;;;;;;4994950;28;20301;-75
2021/03/11 09:22:35;;;;;;;17.35;13.15;;;12.10;95.90;;;;;;4995258;28;20589;-78
2021/03/11 09:25:07;;;;;;;23.10;15.75;;;12.20;96.30;;;;;;4994039;28;20057;-75
2021/03/11 09:27:37;;;;;;;19.63;12.80;;;12.30;96.70;;;;;;4994551;28;20426;-77
2021/03/11 09:30:24;;;;;;;17.05;12.95;;;12.60;96.40;;;;;;4998961;28;20050;-77
2021/03/11 09:32:51;;;;;;;15.88;12.88;;;12.60;95.70;;;;;;4979300;28;20527;-78
2021/03/11 09:35:23;;;;;;;18.58;13.73;;;12.70;95.00;;;;;;4975835;28;20578;-78
2021/03/11 09:37:56;;;;;;;23.15;14.63;;;12.90;95.00;;;;;;4995840;28;20044;-74
2021/03/11 09:40:26;;;;;;;18.77;14.18;;;13.00;94.80;;;;;;4994237;28;20052;-74
2021/03/11 09:43:11;;;;;;;23.00;16.27;;;13.10;94.40;;;;;;4994866;28;20341;-73
2021/03/11 09:45:41;;;;;;;21.17;13.68;;;13.30;94.50;;;;;;4993671;28;20594;-73
2021/03/11 09:48:12;;;;;;;18.77;13.45;;;13.40;94.00;;;;;;4993142;28;20498;-73
2021/03/11 09:50:50;;;;;;;18.20;12.25;;;13.40;94.30;;;;;;4997963;28;20077;-75
2021/03/11 09:53:18;;;;;;;20.08;14.00;;;13.40;94.00;;;;;;4988496;28;20050;-75
2021/03/11 09:55:46;;;;;;;18.70;13.95;;;13.30;94.30;;;;;;4997820;28;20127;-74
2021/03/11 09:58:16;;;;;;;18.95;13.85;;;13.30;94.80;;;;;;4994094;28;20056;-73
2021/03/11 10:00:45;;;;;;;22.92;14.48;;;13.40;94.40;;;;;;5011007;28;20627;-73
2021/03/11 10:03:17;;;;;;;21.42;13.73;;;13.50;94.40;;;;;;4992882;28;20120;-74
2021/03/11 10:05:51;;;;;;;14.48;11.57;;;13.60;94.20;;;;;;4975429;28;20050;-72
2021/03/11 10:08:29;;;;;;;15.60;11.30;;;13.80;95.40;;;;;;4976522;28;20478;-73
2021/03/11 10:10:58;;;;;;;14.68;11.75;;;13.90;95.80;;;;;;5001046;28;20113;-73
2021/03/11 10:13:35;;;;;;;15.48;12.10;;;13.90;95.10;;;;;;4997689;28;20049;-73
2021/03/11 10:16:03;;;;;;;15.02;11.45;;;13.90;95.50;;;;;;5013363;28;20038;-72
2021/03/11 10:18:31;;;;;;;13.68;10.57;;;14.10;95.60;;;;;;4988576;28;20326;-73
2021/03/11 10:21:01;;;;;;;15.07;11.07;;;14.30;94.90;;;;;;4996096;28;20039;-72
2021/03/11 10:23:29;;;;;;;16.52;10.88;;;14.20;94.90;;;;;;5000818;28;20132;-73
2021/03/11 10:26:11;;;;;;;15.20;10.93;;;14.30;94.70;;;;;;4999624;28;20042;-73
2021/03/11 10:28:42;;;;;;;13.40;10.60;;;14.50;94.50;;;;;;4996908;28;20519;-73
2021/03/11 10:31:11;;;;;;;14.90;10.40;;;14.60;94.30;;;;;;4992584;28;20496;-73
2021/03/11 10:33:40;;;;;;;14.05;10.85;;;14.50;94.20;;;;;;4992172;28;20096;-73
2021/03/11 10:36:12;;;;;;;13.43;10.25;;;14.40;93.80;;;;;;5001067;28;20116;-72
2021/03/11 10:38:40;;;;;;;13.75;10.30;;;14.30;94.20;;;;;;5000076;28;20041;-73
2021/03/11 10:41:11;;;;;;;18.48;12.68;;;14.30;94.20;;;;;;4984095;28;20132;-73
2021/03/11 10:43:39;;;;;;;16.60;10.90;;;14.30;94.70;;;;;;4997013;28;21113;-73
2021/03/11 10:46:07;;;;;;;13.00;10.85;;;14.40;94.30;;;;;;4983642;28;20407;-73
2021/03/11 10:48:50;;;;;;;13.38;10.40;;;14.60;94.00;;;;;;4981311;28;20062;-73
2021/03/11 10:51:20;;;;;;;13.32;10.60;;;14.60;93.60;;;;;;4992645;28;20046;-73
2021/03/11 10:53:48;;;;;;;16.77;10.90;;;14.60;93.60;;;;;;5000543;28;20038;-73
2021/03/11 10:56:16;;;;;;;12.32;10.68;;;14.70;93.80;;;;;;4994764;28;20116;-72
2021/03/11 10:58:44;;;;;;;13.30;10.73;;;14.70;93.60;;;;;;4997914;28;20046;-73
2021/03/11 11:01:29;;;;;;;16.75;11.45;;;14.70;93.10;;;;;;4995980;28;20509;-74
2021/03/11 11:03:59;;;;;;;13.85;10.60;;;14.80;94.20;;;;;;4994209;28;20048;-73
2021/03/11 11:06:30;;;;;;;13.38;10.65;;;14.70;93.50;;;;;;4998960;28;20050;-73
2021/03/11 11:08:58;;;;;;;15.05;10.75;;;14.90;93.60;;;;;;4999023;28;20134;-73
2021/03/11 11:11:26;;;;;;;17.15;10.90;;;14.90;92.80;;;;;;4978981;28;20038;-73
2021/03/11 11:13:54;;;;;;;13.35;10.75;;;14.90;93.20;;;;;;4996678;28;20043;-73
2021/03/11 11:16:23;;;;;;;14.07;10.73;;;15.00;93.30;;;;;;4990399;28;20281;-73
2021/03/11 11:18:51;;;;;;;15.82;10.85;;;15.10;93.10;;;;;;4990199;28;20555;-73
2021/03/11 11:21:19;;;;;;;13.05;9.85;;;15.30;92.60;;;;;;4990589;28;20073;-73
2021/03/11 11:23:48;;;;;;;12.90;8.90;;;15.40;91.70;;;;;;5001676;28;20046;-73
2021/03/11 11:26:16;;;;;;;15.57;9.23;;;15.50;89.50;;;;;;4980101;28;20590;-73
2021/03/11 11:28:44;;;;;;;10.75;8.93;;;15.30;89.70;;;;;;4993341;28;20544;-73
2021/03/11 11:31:11;;;;;;;15.70;9.30;;;15.20;91.00;;;;;;4979626;28;20030;-73
2021/03/11 11:33:40;;;;;;;11.00;8.65;;;15.20;91.00;;;;;;4994958;28;20038;-74
2021/03/11 11:36:08;;;;;;;13.77;10.05;;;15.10;91.20;;;;;;4993513;28;20454;-73
2021/03/11 11:38:35;;;;;;;14.65;8.45;;;15.10;91.00;;;;;;4979862;28;20672;-74
2021/03/11 11:41:04;;;;;;;14.38;9.35;;;15.20;90.40;;;;;;4999855;28;20041;-73
2021/03/11 11:43:31;;;;;;;13.48;9.13;;;15.20;90.50;;;;;;4998809;28;20820;-74
2021/03/11 11:45:59;;;;;;;11.23;8.63;;;15.20;90.80;;;;;;4996243;28;20034;-74
2021/03/11 11:48:27;;;;;;;11.65;8.88;;;15.20;90.50;;;;;;4992658;28;20141;-73
2021/03/11 11:50:55;;;;;;;10.32;8.35;;;15.10;90.40;;;;;;4999315;28;20045;-73
2021/03/11 11:53:22;;;;;;;10.98;7.72;;;15.10;90.50;;;;;;4996759;28;20152;-73
2021/03/11 11:55:50;;;;;;;9.23;7.65;;;14.90;90.60;;;;;;4987365;28;20038;-72
2021/03/11 11:58:18;;;;;;;10.30;7.22;;;14.90;91.00;;;;;;4989039;28;20097;-73
2021/03/11 12:00:45;;;;;;;9.00;6.68;;;15.00;91.00;;;;;;4990870;28;20511;-73
2021/03/11 12:03:13;;;;;;;8.32;6.03;;;15.00;88.10;;;;;;4992814;28;20125;-73
2021/03/11 12:05:41;;;;;;;9.35;5.70;;;15.00;88.10;;;;;;4993475;28;20045;-73
2021/03/11 12:08:09;;;;;;;8.95;5.75;;;15.10;87.10;;;;;;4999111;28;20046;-73
2021/03/11 12:10:37;;;;;;;7.50;5.18;;;15.10;86.00;;;;;;4977334;28;20364;-73
2021/03/11 12:13:07;;;;;;;8.30;5.82;;;15.10;84.70;;;;;;4979120;28;20477;-73
2021/03/11 12:15:35;;;;;;;6.65;5.10;;;15.10;84.10;;;;;;4982557;28;20049;-73
2021/03/11 12:18:02;;;;;;;7.90;5.10;;;15.30;84.90;;;;;;4995664;28;20143;-73
2021/03/11 12:20:33;;;;;;;8.38;4.70;;;15.30;84.20;;;;;;4978475;28;20092;-73
2021/03/11 12:23:02;;;;;;;6.90;4.25;;;15.30;84.00;;;;;;4993634;28;20057;-72
2021/03/11 12:25:30;;;;;;;7.25;4.75;;;15.40;84.30;;;;;;4997394;28;20042;-73
2021/03/11 12:27:57;;;;;;;7.25;5.28;;;15.40;83.30;;;;;;4994062;28;20038;-73
2021/03/11 12:30:26;;;;;;;7.20;4.80;;;15.40;82.60;;;;;;4990059;28;20073;-73
2021/03/11 12:32:55;;;;;;;7.93;4.78;;;15.40;82.90;;;;;;4997865;28;20133;-73
2021/03/11 12:35:23;;;;;;;6.55;5.07;;;15.40;83.30;;;;;;4994403;28;20534;-73
2021/03/11 12:37:51;;;;;;;6.93;4.22;;;15.30;83.00;;;;;;4991824;28;20038;-73
2021/03/11 12:40:20;;;;;;;6.60;4.97;;;15.30;83.10;;;;;;4992674;28;20514;-73
2021/03/11 12:42:48;;;;;;;7.47;4.95;;;15.30;82.50;;;;;;4995291;28;20069;-72
2021/03/11 12:45:16;;;;;;;8.95;5.18;;;15.40;82.40;;;;;;4982158;28;20478;-72
2021/03/11 12:47:44;;;;;;;6.30;4.80;;;15.40;83.30;;;;;;4994806;28;20045;-73
2021/03/11 12:50:14;;;;;;;5.72;4.65;;;15.30;82.50;;;;;;4993589;28;20081;-73
2021/03/11 12:52:41;;;;;;;9.10;5.57;;;15.30;83.50;;;;;;4995773;28;20591;-73
2021/03/11 12:55:09;;;;;;;9.23;6.43;;;15.40;83.50;;;;;;4997552;28;20046;-73
2021/03/11 12:57:37;;;;;;;7.90;5.57;;;15.40;84.20;;;;;;4990451;28;20213;-73
2021/03/11 13:00:07;;;;;;;8.50;4.88;;;15.40;84.20;;;;;;4993256;28;20496;-73